createdAt,value
2022-10-05T00:02:39.003Z,12.2
2022-10-05T00:17:39.002Z,12.2
2022-10-05T00:32:39.007Z,12.3
2022-10-05T00:47:39.012Z,12.4
2022-10-05T01:02:39.071Z,12.4
2022-10-05T01:17:39.015Z,12.5
2022-10-05T01:32:39.000Z,12.3
2022-10-05T01:47:39.006Z,12.2
2022-10-05T02:02:39.053Z,12.2
2022-10-05T02:17:38.998Z,12.4
2022-10-05T02:32:39.003Z,12.5
2022-10-05T02:47:39.016Z,12.6
2022-10-05T03:02:38.999Z,12.6
2022-10-05T03:17:39.015Z,12.8
2022-10-05T03:32:38.999Z,12.6
2022-10-05T03:47:39.003Z,12.6
2022-10-05T04:02:39.063Z,12.5
2022-10-05T04:17:39.000Z,12.4
2022-10-05T04:32:39.000Z,12.5
2022-10-05T04:47:39.008Z,12.5
2022-10-05T05:02:39.006Z,12.6
2022-10-05T05:17:38.997Z,12.6
2022-10-05T05:32:39.005Z,12.8
2022-10-05T05:47:39.043Z,12.9
2022-10-05T06:02:39.024Z,13.1
2022-10-05T06:17:39.003Z,13.3
2022-10-05T06:32:39.005Z,13.5
2022-10-05T06:47:39.012Z,13.7
2022-10-05T07:02:39.108Z,13.9
2022-10-05T07:17:39.024Z,14
2022-10-05T07:32:39.002Z,14.1
2022-10-05T07:47:39.006Z,14.6
2022-10-05T08:02:39.234Z,14.9
2022-10-05T08:17:39.004Z,15.2
2022-10-05T08:32:39.015Z,15.4
2022-10-05T08:47:39.018Z,15.6
2022-10-05T09:02:39.063Z,15.8
2022-10-05T09:17:39.485Z,15.9
2022-10-05T09:32:39.002Z,16
2022-10-05T09:47:39.003Z,16.1
2022-10-05T10:02:39.146Z,16.4
2022-10-05T10:17:39.011Z,16.7
2022-10-05T10:32:39.014Z,17
2022-10-05T10:47:39.005Z,17.1
2022-10-05T11:02:39.073Z,17.2
2022-10-05T11:17:39.009Z,17.6
2022-10-05T11:32:39.002Z,18
2022-10-05T11:47:39.010Z,18.2
2022-10-05T12:02:40.043Z,18.4
2022-10-05T12:17:39.005Z,18.7
2022-10-05T12:32:39.001Z,19
2022-10-05T12:47:39.001Z,19.4
2022-10-05T13:02:39.018Z,19.5
2022-10-05T13:17:39.015Z,19.8
2022-10-05T13:32:39.012Z,19.9
2022-10-05T13:47:39.029Z,20.1
2022-10-05T14:02:39.005Z,20.2
2022-10-05T14:17:39.004Z,20.6
2022-10-05T14:32:39.003Z,21.5
2022-10-05T14:47:39.004Z,22
2022-10-05T15:02:39.041Z,22.7
2022-10-05T15:17:39.018Z,21.2
2022-10-05T15:32:39.005Z,20.2
2022-10-05T15:47:39.026Z,19.9
2022-10-05T16:02:39.038Z,18.9
2022-10-05T16:17:39.003Z,18.2
2022-10-05T16:32:39.004Z,18.2
2022-10-05T16:47:39.001Z,17.6
2022-10-05T17:02:39.111Z,17.4
2022-10-05T17:17:39.008Z,17.5
2022-10-05T17:32:39.006Z,17.7
2022-10-05T17:47:39.858Z,17.7
2022-10-05T18:02:39.035Z,17.6
2022-10-05T18:17:39.012Z,17.6
2022-10-05T18:32:39.009Z,17.6
2022-10-05T18:47:39.018Z,17.6
2022-10-05T19:02:39.112Z,17.6
2022-10-05T19:17:39.007Z,17.6
2022-10-05T19:32:39.009Z,17.6
2022-10-05T19:47:41.065Z,17.6
2022-10-05T20:02:41.845Z,17.6
2022-10-05T20:17:39.007Z,17.6
2022-10-05T20:32:39.005Z,17.6
2022-10-05T20:47:39.015Z,17.5
2022-10-05T21:02:39.011Z,17.1
2022-10-05T21:17:39.008Z,16.9
2022-10-05T21:32:43.301Z,14.6
2022-10-05T21:47:39.002Z,14.5
2022-10-05T22:02:39.038Z,14.5
2022-10-05T22:17:39.002Z,14.5
2022-10-05T22:32:39.017Z,14.6
2022-10-05T22:47:39.005Z,13.6
2022-10-05T23:02:39.150Z,12.8
2022-10-05T23:17:39.004Z,12.9
2022-10-05T23:32:39.007Z,13
2022-10-05T23:47:39.011Z,13.1
